Time;durP1;ratioP1;P1;durP2;ratioP2;P2;SDS_P1;SDS_P2;PMS_P1;PMS_P2;Temp;Humidity;BMP_temperature;BMP_pressure;BME280_temperature;BME280_humidity;BME280_pressure;Samples;Min_cycle;Max_cycle;Signal;HPM_P1;HPM_P2
2023/07/24 04:33:27;;;;;;;4.45;4.05;;;16.10;99.90;;;;;;5521968;23;20701;-83
2023/07/24 04:35:54;;;;;;;4.10;3.80;;;;;;;;;;4995107;28;20605;-74
2023/07/24 04:38:21;;;;;;;4.63;4.22;;;;;;;;;;4995877;28;20642;-74
2023/07/24 04:40:48;;;;;;;4.53;4.13;;;16.20;99.90;;;;;;4996085;28;20225;-74
2023/07/24 04:43:14;;;;;;;4.03;3.72;;;16.20;99.90;;;;;;4995809;28;20218;-73
2023/07/24 04:45:41;;;;;;;4.15;3.78;;;16.30;99.90;;;;;;4996554;28;20198;-72
2023/07/24 04:48:08;;;;;;;3.83;3.53;;;16.20;99.90;;;;;;4996035;28;20214;-72
2023/07/24 04:50:36;;;;;;;4.43;4.03;;;16.20;99.90;;;;;;4996051;28;20206;-72
2023/07/24 04:53:03;;;;;;;3.72;3.53;;;16.30;99.90;;;;;;4995591;28;20230;-72
2023/07/24 04:55:29;;;;;;;4.63;4.22;;;16.30;99.90;;;;;;4995692;28;20210;-74
2023/07/24 04:57:56;;;;;;;4.35;3.95;;;16.40;99.90;;;;;;4995547;28;20215;-74
2023/07/24 05:00:23;;;;;;;3.92;3.60;;;16.40;99.90;;;;;;4996170;28;20203;-73
2023/07/24 05:02:49;;;;;;;4.85;4.13;;;16.50;99.90;;;;;;4995438;28;20579;-74
2023/07/24 05:05:16;;;;;;;6.05;5.15;;;16.50;99.90;;;;;;4995521;28;20210;-74
2023/07/24 05:07:44;;;;;;;8.57;6.43;;;16.50;99.90;;;;;;4995385;28;20195;-74
2023/07/24 05:10:13;;;;;;;8.18;6.05;;;16.40;99.90;;;;;;4995346;28;20203;-74
2023/07/24 05:12:42;;;;;;;7.45;6.10;;;16.40;99.90;;;;;;4995315;28;20226;-74
2023/07/24 05:15:09;;;;;;;9.70;7.32;;;16.30;99.90;;;;;;4995324;28;20198;-74
2023/07/24 05:17:36;;;;;;;9.27;6.43;;;16.20;99.90;;;;;;4995294;28;20222;-74
2023/07/24 05:20:03;;;;;;;10.43;7.43;;;16.20;99.90;;;;;;4995130;28;20570;-74
2023/07/24 05:22:29;;;;;;;9.73;6.63;;;16.10;99.90;;;;;;4995135;28;20307;-73
2023/07/24 05:24:57;;;;;;;8.73;6.88;;;16.10;99.90;;;;;;4994803;28;20202;-74
2023/07/24 05:27:24;;;;;;;8.25;6.65;;;16.00;99.90;;;;;;4995010;28;20203;-73
2023/07/24 05:29:51;;;;;;;9.70;7.43;;;16.00;99.90;;;;;;4994999;28;20202;-73
2023/07/24 05:32:18;;;;;;;8.50;6.57;;;16.10;99.90;;;;;;4995493;28;20207;-74
2023/07/24 05:34:44;;;;;;;9.05;6.97;;;16.20;99.90;;;;;;4994996;28;20203;-73
2023/07/24 05:37:11;;;;;;;12.50;6.93;;;16.20;99.90;;;;;;4994950;28;20187;-72
2023/07/24 05:39:38;;;;;;;8.02;6.20;;;16.30;99.90;;;;;;4994847;28;20226;-73
2023/07/24 05:42:06;;;;;;;8.13;6.20;;;16.40;99.90;;;;;;4994817;28;20638;-73
2023/07/24 05:44:35;;;;;;;6.88;6.18;;;16.50;99.90;;;;;;4994745;28;20226;-73
2023/07/24 05:47:02;;;;;;;6.93;6.20;;;16.60;99.90;;;;;;4994643;28;20203;-73
2023/07/24 05:49:29;;;;;;;6.63;5.55;;;16.70;99.90;;;;;;4994720;28;20202;-73
2023/07/24 05:51:56;;;;;;;8.25;6.00;;;16.60;99.90;;;;;;4994704;28;20202;-73
2023/07/24 05:54:23;;;;;;;6.45;5.85;;;16.60;99.90;;;;;;4994637;28;20218;-73
2023/07/24 05:56:50;;;;;;;7.00;6.05;;;16.60;99.90;;;;;;4994596;28;20218;-75
2023/07/24 05:59:18;;;;;;;5.65;5.15;;;16.60;99.90;;;;;;4994862;28;20229;-74
2023/07/24 06:01:44;;;;;;;6.60;5.95;;;16.60;99.90;;;;;;4994644;28;20213;-73
2023/07/24 06:04:11;;;;;;;5.43;5.00;;;16.60;99.90;;;;;;4994488;28;20229;-73
2023/07/24 06:06:38;;;;;;;5.90;5.25;;;16.80;99.90;;;;;;4994510;28;20198;-73
2023/07/24 06:09:05;;;;;;;6.20;5.60;;;16.80;99.90;;;;;;4994155;28;20586;-73
2023/07/24 06:11:31;;;;;;;5.15;4.65;;;17.00;99.90;;;;;;4994459;28;20199;-74
2023/07/24 06:13:58;;;;;;;4.78;4.22;;;17.20;99.90;;;;;;4994454;28;20226;-76
2023/07/24 06:16:26;;;;;;;4.10;3.80;;;17.30;99.90;;;;;;4994185;28;20573;-76
2023/07/24 06:18:53;;;;;;;4.10;3.80;;;17.30;99.90;;;;;;4994154;28;20297;-76
2023/07/24 06:21:20;;;;;;;3.85;3.47;;;17.50;99.90;;;;;;4994328;28;20328;-76
2023/07/24 06:23:46;;;;;;;3.63;3.33;;;17.60;99.90;;;;;;4993941;28;20222;-76
2023/07/24 06:26:13;;;;;;;3.33;3.13;;;17.80;99.90;;;;;;4994287;28;20230;-76
2023/07/24 06:28:40;;;;;;;3.58;3.38;;;17.90;99.90;;;;;;4994288;28;20206;-76
2023/07/24 06:31:06;;;;;;;3.63;3.40;;;18.10;99.90;;;;;;4994277;28;20209;-76
2023/07/24 06:33:34;;;;;;;3.30;3.10;;;18.30;99.90;;;;;;4996149;28;20729;-76
2023/07/24 06:36:01;;;;;;;2.85;2.72;;;18.50;99.90;;;;;;4995488;28;20221;-77
2023/07/24 06:38:28;;;;;;;3.13;2.92;;;18.60;99.90;;;;;;4994084;28;20225;-77
2023/07/24 06:40:54;;;;;;;3.03;2.88;;;18.80;99.90;;;;;;4994112;28;20206;-76
2023/07/24 06:43:21;;;;;;;3.25;3.05;;;18.90;99.90;;;;;;4993701;28;20569;-76
2023/07/24 06:45:48;;;;;;;3.10;2.90;;;19.10;99.90;;;;;;4994055;28;20207;-74
2023/07/24 06:48:14;;;;;;;2.70;2.60;;;19.30;99.90;;;;;;4994042;28;20198;-75
2023/07/24 06:50:42;;;;;;;3.83;3.45;;;19.70;99.90;;;;;;4993694;28;20688;-74
2023/07/24 06:53:09;;;;;;;3.00;2.80;;;20.20;99.90;;;;;;4993911;28;20222;-75
2023/07/24 06:55:36;;;;;;;4.05;3.65;;;21.10;99.90;;;;;;4993884;28;20198;-74
2023/07/24 06:58:02;;;;;;;5.32;3.92;;;22.10;99.90;;;;;;4993826;28;20689;-75
2023/07/24 07:00:29;;;;;;;3.88;3.53;;;23.20;99.90;;;;;;4997436;28;20669;-75
2023/07/24 07:02:56;;;;;;;3.83;3.35;;;23.60;99.90;;;;;;4997965;28;20233;-75
2023/07/24 07:05:22;;;;;;;3.60;3.35;;;23.50;99.90;;;;;;4997759;28;20199;-75
2023/07/24 07:07:50;;;;;;;3.83;3.42;;;23.30;99.90;;;;;;4997705;28;20209;-74
2023/07/24 07:10:17;;;;;;;3.85;3.58;;;23.00;99.90;;;;;;4997586;28;20210;-75
2023/07/24 07:12:44;;;;;;;3.75;3.35;;;22.70;99.90;;;;;;4997582;28;20225;-75
2023/07/24 07:15:11;;;;;;;3.67;3.38;;;22.50;99.90;;;;;;5000399;28;20206;-75
2023/07/24 07:17:37;;;;;;;4.03;3.72;;;22.40;99.90;;;;;;5003131;28;20576;-76
2023/07/24 07:20:05;;;;;;;3.67;3.40;;;22.30;99.90;;;;;;5000225;28;20229;-76
2023/07/24 07:22:32;;;;;;;3.88;3.58;;;22.40;99.90;;;;;;4997295;28;20226;-77
2023/07/24 07:25:00;;;;;;;3.40;3.13;;;22.40;99.90;;;;;;4997085;28;20209;-77
2023/07/24 07:27:27;;;;;;;4.00;3.70;;;22.10;99.90;;;;;;4997248;28;20209;-76
2023/07/24 07:29:53;;;;;;;4.03;3.63;;;21.90;99.90;;;;;;4997469;28;20198;-76
2023/07/24 07:32:20;;;;;;;3.75;3.40;;;22.00;99.90;;;;;;4996852;28;20202;-77
2023/07/24 07:34:47;;;;;;;3.78;3.45;;;22.00;99.90;;;;;;4996973;28;20202;-77
2023/07/24 07:37:13;;;;;;;3.20;3.00;;;22.30;99.90;;;;;;4997146;28;20545;-77
2023/07/24 07:39:40;;;;;;;3.90;3.50;;;22.60;99.90;;;;;;4996938;28;20233;-77
2023/07/24 07:42:08;;;;;;;3.30;3.03;;;23.10;99.90;;;;;;4997040;28;20205;-77
2023/07/24 07:44:35;;;;;;;3.67;3.38;;;23.40;99.90;;;;;;4996712;28;20569;-75
2023/07/24 07:47:02;;;;;;;2.80;2.58;;;23.60;99.90;;;;;;4997260;28;20210;-75
2023/07/24 07:49:28;;;;;;;4.15;3.75;;;23.70;99.90;;;;;;4997118;28;20207;-75
2023/07/24 07:51:55;;;;;;;3.30;3.00;;;23.80;99.90;;;;;;4996878;28;20606;-75
2023/07/24 07:54:22;;;;;;;3.50;3.30;;;23.90;99.90;;;;;;4996712;28;20222;-75
2023/07/24 07:56:48;;;;;;;3.55;3.25;;;23.80;99.90;;;;;;4996748;28;20199;-75
2023/07/24 07:59:16;;;;;;;3.30;3.10;;;23.70;99.90;;;;;;4996852;28;20218;-75
2023/07/24 08:01:45;;;;;;;3.72;3.42;;;23.60;99.90;;;;;;4996762;28;20211;-75
2023/07/24 08:04:11;;;;;;;3.42;3.22;;;23.30;99.90;;;;;;4996434;28;20598;-75
2023/07/24 08:06:38;;;;;;;3.13;2.92;;;23.00;99.90;;;;;;4996574;28;20213;-75
2023/07/24 08:09:05;;;;;;;2.90;2.75;;;22.80;99.90;;;;;;4996325;28;20209;-75
2023/07/24 08:11:31;;;;;;;3.25;3.10;;;22.60;99.90;;;;;;4995505;28;20577;-75
2023/07/24 08:13:58;;;;;;;3.13;2.92;;;22.40;99.90;;;;;;4996517;28;20222;-75
2023/07/24 08:16:26;;;;;;;3.40;3.10;;;22.10;99.90;;;;;;4996203;28;20668;-75
2023/07/24 08:18:53;;;;;;;2.90;2.70;;;21.80;99.90;;;;;;4996323;28;20218;-75
2023/07/24 08:21:19;;;;;;;3.00;2.80;;;21.60;99.90;;;;;;4996872;28;20202;-74
2023/07/24 08:23:46;;;;;;;3.10;2.90;;;21.40;99.90;;;;;;4996134;28;20226;-74
2023/07/24 08:26:13;;;;;;;2.83;2.72;;;21.30;99.90;;;;;;4996274;28;20210;-74
2023/07/24 08:28:42;;;;;;;2.63;2.53;;;21.20;99.90;;;;;;4996473;28;20202;-74
2023/07/24 08:31:09;;;;;;;2.70;2.50;;;21.20;99.90;;;;;;4996152;28;20241;-74
2023/07/24 08:33:37;;;;;;;2.17;2.08;;;21.30;99.90;;;;;;4996011;28;20265;-75
2023/07/24 08:36:06;;;;;;;3.00;2.85;;;21.30;99.90;;;;;;4995965;28;20210;-74
2023/07/24 08:38:33;;;;;;;3.97;3.67;;;21.40;99.90;;;;;;4996106;28;20229;-74
2023/07/24 08:41:04;;;;;;;3.67;3.35;;;21.60;99.90;;;;;;4995929;28;20202;-74
2023/07/24 08:43:32;;;;;;;3.08;2.88;;;21.90;99.90;;;;;;4995512;28;20233;-75
2023/07/24 08:46:00;;;;;;;3.70;3.40;;;22.20;99.90;;;;;;4995832;28;20266;-74
2023/07/24 08:48:30;;;;;;;2.90;2.70;;;22.40;99.90;;;;;;4995444;28;20237;-74
2023/07/24 08:51:00;;;;;;;3.35;3.05;;;22.70;99.90;;;;;;4995764;28;20206;-74
2023/07/24 08:53:27;;;;;;;3.45;3.22;;;22.90;99.90;;;;;;4995648;28;20230;-74
2023/07/24 08:55:55;;;;;;;2.70;2.53;;;23.10;99.90;;;;;;4996108;28;20285;-74
2023/07/24 08:58:22;;;;;;;3.08;2.88;;;23.50;99.90;;;;;;4995465;28;20203;-75
2023/07/24 09:00:51;;;;;;;3.25;3.05;;;23.70;99.90;;;;;;4995642;28;20213;-75
2023/07/24 09:03:18;;;;;;;3.10;2.90;;;23.90;99.90;;;;;;4995448;28;20225;-75
2023/07/24 09:05:44;;;;;;;3.10;3.00;;;24.00;99.90;;;;;;4995306;28;20205;-75
2023/07/24 09:08:12;;;;;;;3.00;2.90;;;24.20;99.90;;;;;;4995519;28;20213;-75
2023/07/24 09:10:39;;;;;;;3.03;2.83;;;24.30;99.90;;;;;;4995556;28;20201;-75
2023/07/24 09:13:07;;;;;;;2.95;2.75;;;24.30;99.90;;;;;;4995291;28;20578;-75
2023/07/24 09:15:41;;;;;;;3.05;2.85;;;24.40;99.90;;;;;;4995086;28;20662;-75
2023/07/24 09:18:07;;;;;;;3.03;2.78;;;24.60;99.90;;;;;;4995364;28;20190;-75
2023/07/24 09:20:40;;;;;;;3.55;2.78;;;24.90;99.90;;;;;;4995087;28;20248;-75
2023/07/24 09:23:06;;;;;;;3.17;2.97;;;25.40;99.90;;;;;;4995021;28;20705;-75
2023/07/24 09:25:36;;;;;;;2.75;2.55;;;26.00;99.90;;;;;;4995189;28;20272;-74
2023/07/24 09:28:10;;;;;;;3.03;2.85;;;26.50;99.90;;;;;;4995095;28;20633;-73
2023/07/24 09:30:37;;;;;;;2.63;2.53;;;26.90;99.90;;;;;;4995216;28;20217;-74
2023/07/24 09:33:04;;;;;;;3.20;3.00;;;27.00;99.90;;;;;;4994889;28;20228;-73
2023/07/24 09:35:31;;;;;;;2.97;2.78;;;26.90;99.90;;;;;;4994794;28;20225;-74
2023/07/24 09:38:04;;;;;;;3.83;3.03;;;27.00;99.90;;;;;;4994652;28;20666;-74
2023/07/24 09:40:41;;;;;;;2.92;2.72;;;27.20;99.90;;;;;;4994805;28;20206;-74
2023/07/24 09:43:21;;;;;;;2.97;2.78;;;27.50;99.90;;;;;;4994763;28;20272;-74
2023/07/24 09:45:48;;;;;;;2.28;2.17;;;27.60;99.90;;;;;;4994723;28;20202;-73
2023/07/24 09:48:16;;;;;;;3.20;3.00;;;27.60;99.90;;;;;;4994682;28;20209;-74
2023/07/24 09:50:47;;;;;;;3.13;2.92;;;27.80;99.90;;;;;;4994632;28;20570;-73
2023/07/24 09:53:19;;;;;;;2.97;2.78;;;27.90;99.90;;;;;;4994547;28;20222;-73
2023/07/24 09:55:58;;;;;;;3.10;2.90;;;27.70;99.90;;;;;;4994632;28;20218;-73
2023/07/24 09:58:26;;;;;;;2.90;2.70;;;27.60;99.90;;;;;;4994365;28;20190;-73
2023/07/24 10:00:53;;;;;;;2.85;2.65;;;27.60;99.90;;;;;;4994325;28;20799;-73
2023/07/24 10:03:22;;;;;;;3.60;3.30;;;27.70;99.90;;;;;;4994238;28;20229;-74
2023/07/24 10:05:50;;;;;;;3.97;3.67;;;27.30;99.90;;;;;;4994719;28;20209;-74
2023/07/24 10:08:17;;;;;;;4.10;3.80;;;26.80;99.90;;;;;;4994389;28;20300;-74
2023/07/24 10:10:44;;;;;;;3.80;3.53;;;26.20;99.90;;;;;;4994383;28;20653;-75
2023/07/24 10:13:15;;;;;;;6.57;5.28;;;25.70;99.90;;;;;;4994394;28;20249;-69
2023/07/24 10:15:42;;;;;;;8.95;4.60;;;23.80;99.90;;;;;;4994724;28;20187;-69
2023/07/24 10:18:10;;;;;;;6.25;3.78;;;22.20;99.90;;;;;;4994313;28;20209;-69
2023/07/24 10:20:38;;;;;;;3.78;3.47;;;20.90;99.90;;;;;;4994212;28;20254;-70
2023/07/24 10:23:06;;;;;;;3.42;3.13;;;19.90;99.90;;;;;;4994045;28;20226;-71
2023/07/24 10:25:33;;;;;;;3.10;2.90;;;19.10;99.90;;;;;;4994151;28;20769;-69
2023/07/24 10:28:07;;;;;;;2.45;2.33;;;18.70;99.90;;;;;;4994189;28;20569;-68
2023/07/24 10:30:36;;;;;;;2.92;2.83;;;18.30;99.90;;;;;;4994363;28;20558;-68
2023/07/24 10:33:08;;;;;;;2.28;2.17;;;18.00;99.90;;;;;;4994511;28;20226;-69
2023/07/24 10:35:39;;;;;;;2.70;2.50;;;17.70;99.90;;;;;;4998939;28;20304;-69
2023/07/24 10:38:06;;;;;;;2.00;1.90;;;17.40;99.90;;;;;;4998959;28;20195;-73
2023/07/24 10:40:34;;;;;;;2.30;2.20;;;17.20;99.90;;;;;;4998880;28;20276;-73
2023/07/24 10:43:06;;;;;;;1.88;1.88;;;17.20;99.90;;;;;;4998985;28;20231;-73
2023/07/24 10:45:51;;;;;;;1.73;1.67;;;17.10;99.90;;;;;;4999434;28;20186;-72
2023/07/24 10:48:20;;;;;;;1.70;1.60;;;16.90;99.90;;;;;;4999294;28;20190;-70
2023/07/24 10:50:48;;;;;;;2.17;2.08;;;16.70;99.90;;;;;;4999254;28;20214;-71
2023/07/24 10:53:17;;;;;;;1.77;1.77;;;16.70;99.90;;;;;;4998620;28;20223;-70
2023/07/24 10:55:44;;;;;;;1.85;1.83;;;16.70;99.90;;;;;;4999296;28;20261;-70
2023/07/24 10:58:12;;;;;;;1.88;1.85;;;16.70;99.90;;;;;;4999105;28;20209;-72
2023/07/24 11:00:40;;;;;;;1.58;1.50;;;16.80;99.90;;;;;;4998681;28;20298;-74
2023/07/24 11:03:09;;;;;;;1.50;1.40;;;16.80;99.90;;;;;;4998353;28;20222;-74
2023/07/24 11:05:39;;;;;;;1.30;1.30;;;16.90;99.90;;;;;;4998826;28;20203;-73
2023/07/24 11:08:13;;;;;;;1.33;1.30;;;16.90;99.90;;;;;;4997796;28;20206;-74
2023/07/24 11:10:46;;;;;;;1.48;1.38;;;16.90;99.90;;;;;;4998376;28;20522;-69
2023/07/24 11:13:13;;;;;;;1.42;1.42;;;17.10;99.90;;;;;;4998287;28;20265;-69
2023/07/24 11:15:40;;;;;;;1.10;1.10;;;17.30;99.90;;;;;;4998527;28;20271;-69
2023/07/24 11:18:08;;;;;;;1.40;1.40;;;17.40;99.90;;;;;;4998897;28;20232;-70
2023/07/24 11:20:39;;;;;;;1.38;1.38;;;17.60;99.90;;;;;;4997937;28;20694;-69
2023/07/24 11:23:06;;;;;;;0.90;0.90;;;17.90;99.90;;;;;;4998358;28;20261;-69
2023/07/24 11:25:33;;;;;;;1.05;1.05;;;18.10;99.90;;;;;;4997631;28;20289;-70
2023/07/24 11:28:00;;;;;;;1.27;1.27;;;18.20;99.90;;;;;;4997302;28;20210;-69
2023/07/24 11:30:26;;;;;;;1.48;1.38;;;18.20;99.90;;;;;;4997195;28;20202;-69
2023/07/24 11:32:53;;;;;;;1.00;1.00;;;18.10;99.90;;;;;;4997108;28;20226;-69
2023/07/24 11:35:22;;;;;;;1.00;1.00;;;18.00;99.90;;;;;;4997090;28;20219;-70
2023/07/24 11:37:49;;;;;;;1.13;1.13;;;18.00;99.90;;;;;;4996935;28;20814;-70
2023/07/24 11:40:16;;;;;;;1.00;1.00;;;18.10;99.90;;;;;;4996992;28;20218;-70
2023/07/24 11:42:44;;;;;;;0.82;0.82;;;18.30;99.90;;;;;;4996647;28;20219;-70
2023/07/24 11:45:12;;;;;;;0.93;0.93;;;18.40;99.90;;;;;;4996791;28;20257;-70
2023/07/24 11:47:46;;;;;;;0.85;0.85;;;18.50;99.90;;;;;;4997025;28;20577;-70
2023/07/24 11:50:13;;;;;;;1.13;1.13;;;18.90;99.90;;;;;;4996985;28;20230;-70
2023/07/24 11:52:44;;;;;;;0.93;0.93;;;19.20;99.90;;;;;;4996517;28;20231;-71
2023/07/24 11:55:11;;;;;;;1.00;1.00;;;;;;;;;;4997039;28;20187;-70
2023/07/24 11:57:38;;;;;;;0.90;0.90;;;;;;;;;;4996897;28;20214;-71
2023/07/24 12:00:06;;;;;;;0.75;0.75;;;;;;;;;;4996455;28;20218;-71
2023/07/24 12:02:34;;;;;;;0.90;0.90;;;;;;;;;;4996567;28;20241;-71
2023/07/24 12:05:02;;;;;;;0.93;0.93;;;;;;;;;;4996765;28;20230;-71
2023/07/24 12:07:33;;;;;;;1.70;1.60;;;;;;;;;;4996380;28;20609;-71
2023/07/24 12:10:02;;;;;;;1.65;1.65;;;;;;;;;;4996688;28;20230;-71
2023/07/24 12:12:42;;;;;;;1.95;1.85;;;;;;;;;;4996689;28;20197;-71
2023/07/24 12:15:09;;;;;;;1.73;1.63;;;;;;;;;;4997040;28;20205;-72
2023/07/24 12:17:37;;;;;;;1.42;1.35;;;;;;;;;;4997750;28;20199;-72
2023/07/24 12:20:05;;;;;;;1.40;1.40;;;18.20;99.90;;;;;;4996809;28;20222;-72
2023/07/24 12:22:32;;;;;;;1.30;1.30;;;18.40;99.90;;;;;;4996496;28;20253;-72
2023/07/24 12:25:00;;;;;;;1.48;1.48;;;18.60;99.90;;;;;;4996208;28;20697;-72
2023/07/24 12:27:27;;;;;;;1.40;1.40;;;18.70;99.90;;;;;;4996282;28;20203;-72
2023/07/24 12:29:54;;;;;;;1.60;1.60;;;19.00;99.90;;;;;;4996427;28;20198;-71
2023/07/24 12:32:22;;;;;;;1.15;1.15;;;19.50;99.90;;;;;;4995946;28;20210;-72
2023/07/24 12:34:50;;;;;;;1.10;1.10;;;19.60;99.90;;;;;;4995949;28;20206;-72
2023/07/24 12:37:17;;;;;;;1.30;1.30;;;19.30;99.90;;;;;;4996109;28;20198;-71
2023/07/24 12:39:44;;;;;;;1.30;1.30;;;19.20;99.90;;;;;;4995626;28;20210;-71
2023/07/24 12:42:13;;;;;;;1.45;1.45;;;19.00;99.90;;;;;;4996216;28;20206;-72
2023/07/24 12:44:39;;;;;;;1.38;1.38;;;19.20;99.90;;;;;;4996111;28;20206;-72
2023/07/24 12:47:06;;;;;;;1.20;1.20;;;19.50;99.90;;;;;;4995905;28;20217;-72
2023/07/24 12:49:33;;;;;;;1.55;1.55;;;19.80;99.90;;;;;;4995892;28;20605;-72
2023/07/24 12:52:00;;;;;;;1.30;1.30;;;20.00;99.90;;;;;;4995606;28;20213;-72
2023/07/24 12:54:27;;;;;;;1.33;1.33;;;20.20;99.90;;;;;;4995463;28;20709;-73
2023/07/24 12:56:54;;;;;;;1.80;1.70;;;20.10;99.90;;;;;;4995124;28;20210;-73
2023/07/24 12:59:22;;;;;;;2.10;2.00;;;19.70;99.90;;;;;;4995458;28;20209;-73
2023/07/24 13:01:49;;;;;;;2.15;2.05;;;19.40;99.90;;;;;;4995892;28;20211;-73
2023/07/24 13:04:16;;;;;;;2.25;2.15;;;19.30;99.90;;;;;;4995459;28;20233;-75
2023/07/24 13:06:42;;;;;;;2.10;1.90;;;19.30;99.90;;;;;;4995519;28;20206;-74
2023/07/24 13:09:09;;;;;;;1.70;1.67;;;19.40;99.90;;;;;;4995832;28;20191;-74
2023/07/24 13:11:36;;;;;;;1.65;1.65;;;19.40;99.90;;;;;;4995402;28;20202;-74
2023/07/24 13:14:03;;;;;;;1.30;1.30;;;19.30;99.90;;;;;;4996218;28;20222;-74
2023/07/24 13:16:31;;;;;;;1.40;1.40;;;19.10;99.90;;;;;;4996431;28;20212;-74
2023/07/24 13:18:57;;;;;;;1.60;1.60;;;19.10;99.90;;;;;;4995670;28;20207;-74
2023/07/24 13:21:24;;;;;;;1.45;1.45;;;19.40;99.90;;;;;;4994918;28;20241;-73
2023/07/24 13:23:51;;;;;;;1.30;1.30;;;19.60;99.90;;;;;;4995126;28;20230;-73
2023/07/24 13:26:18;;;;;;;1.40;1.40;;;19.50;99.90;;;;;;4995202;28;20198;-74
2023/07/24 13:28:44;;;;;;;1.27;1.27;;;19.60;99.90;;;;;;4995063;28;20699;-74
2023/07/24 13:31:13;;;;;;;1.08;1.08;;;19.60;99.90;;;;;;4995075;28;20202;-74
2023/07/24 13:33:41;;;;;;;0.93;0.93;;;19.90;99.90;;;;;;4995119;28;20234;-75
2023/07/24 13:36:08;;;;;;;0.93;0.93;;;19.90;99.90;;;;;;4994971;28;20210;-74
2023/07/24 13:38:35;;;;;;;1.00;1.00;;;19.80;99.90;;;;;;4995385;28;20308;-74
2023/07/24 13:41:02;;;;;;;0.98;0.98;;;19.90;99.90;;;;;;4994993;28;20316;-75
2023/07/24 13:43:30;;;;;;;0.85;0.85;;;19.90;99.90;;;;;;4994802;28;20222;-75
2023/07/24 13:45:57;;;;;;;0.88;0.88;;;19.70;99.90;;;;;;4994580;28;20202;-75
2023/07/24 13:48:23;;;;;;;1.10;1.10;;;19.60;99.90;;;;;;4995160;28;20209;-76
2023/07/24 13:50:52;;;;;;;0.95;0.95;;;19.30;99.90;;;;;;4994884;28;20592;-75
2023/07/24 13:53:18;;;;;;;0.82;0.82;;;19.30;99.90;;;;;;4994810;28;20222;-76
2023/07/24 13:55:45;;;;;;;1.15;1.15;;;19.10;99.90;;;;;;4994728;28;20213;-76
2023/07/24 13:58:12;;;;;;;0.90;0.90;;;19.10;99.90;;;;;;4994783;28;20209;-71
2023/07/24 14:00:38;;;;;;;0.85;0.85;;;19.10;99.90;;;;;;4994415;28;20715;-73
2023/07/24 14:03:05;;;;;;;0.80;0.80;;;19.00;99.90;;;;;;4994388;28;20222;-74
2023/07/24 14:05:32;;;;;;;0.90;0.90;;;19.00;99.90;;;;;;4994640;28;20301;-74
2023/07/24 14:08:00;;;;;;;0.70;0.70;;;18.90;99.90;;;;;;4994204;28;20745;-74
2023/07/24 14:10:27;;;;;;;0.93;0.93;;;18.90;99.90;;;;;;4994587;28;20194;-74
2023/07/24 14:12:54;;;;;;;1.00;1.00;;;18.60;99.90;;;;;;4994149;28;20732;-74
2023/07/24 14:15:20;;;;;;;0.70;0.70;;;18.50;99.90;;;;;;4994560;28;20214;-74
2023/07/24 14:17:47;;;;;;;0.80;0.80;;;18.40;99.90;;;;;;4994185;28;20593;-74
2023/07/24 14:20:14;;;;;;;0.80;0.80;;;18.30;99.90;;;;;;4994604;28;20203;-74
2023/07/24 14:22:41;;;;;;;0.90;0.90;;;18.20;99.90;;;;;;4994450;28;20222;-74
2023/07/24 14:25:09;;;;;;;1.30;1.08;;;18.20;99.90;;;;;;4994543;28;20202;-74
2023/07/24 14:27:38;;;;;;;0.80;0.80;;;18.00;99.90;;;;;;4994452;28;20313;-73
2023/07/24 14:30:06;;;;;;;0.85;0.85;;;18.00;99.90;;;;;;4994379;28;20206;-73
2023/07/24 14:32:41;;;;;;;1.63;1.52;;;17.70;99.90;;;;;;4994320;28;20674;-73
2023/07/24 14:35:20;;;;;;;1.65;1.55;;;;;;;;;;4995013;28;20206;-73
2023/07/24 14:37:47;;;;;;;1.60;1.50;;;;;;;;;;5005613;28;20191;-74
2023/07/24 14:40:15;;;;;;;1.70;1.70;;;;;;;;;;5013714;28;20206;-74
2023/07/24 14:42:42;;;;;;;1.67;1.67;;;;;;;;;;4999226;28;20222;-73
2023/07/24 14:45:10;;;;;;;1.42;1.42;;;;;;;;;;4994397;28;20222;-74
2023/07/24 14:47:37;;;;;;;1.20;1.20;;;;;;;;;;4993910;28;20570;-73
2023/07/24 14:50:04;;;;;;;1.08;1.08;;;;;;;;;;4993955;28;20547;-73
2023/07/24 14:52:31;;;;;;;1.30;1.30;;;;;;;;;;4994068;28;20234;-73
2023/07/24 14:54:58;;;;;;;1.30;1.30;;;17.70;99.90;;;;;;4994007;28;20696;-72
2023/07/24 14:57:27;;;;;;;0.90;0.90;;;18.00;99.90;;;;;;4994098;28;20210;-72
2023/07/24 14:59:56;;;;;;;0.90;0.90;;;18.20;99.90;;;;;;4993710;28;20285;-72
2023/07/24 15:02:27;;;;;;;0.80;0.80;;;18.30;99.90;;;;;;4993973;28;20218;-72
2023/07/24 15:04:53;;;;;;;1.00;1.00;;;18.40;99.90;;;;;;4994083;28;20213;-72
2023/07/24 15:07:20;;;;;;;0.85;0.85;;;18.60;99.90;;;;;;4993602;28;20206;-73
2023/07/24 15:09:47;;;;;;;0.82;0.82;;;18.60;99.90;;;;;;4994049;28;20203;-72
2023/07/24 15:12:13;;;;;;;1.10;1.10;;;18.80;99.90;;;;;;4993906;28;20206;-70
2023/07/24 15:14:41;;;;;;;1.00;1.00;;;18.80;99.90;;;;;;4993695;28;20202;-71
2023/07/24 15:17:08;;;;;;;1.17;1.17;;;18.90;99.90;;;;;;4994036;28;20194;-71
2023/07/24 15:19:35;;;;;;;0.80;0.80;;;;;;;;;;4994915;28;20198;-71
2023/07/24 15:22:03;;;;;;;0.73;0.73;;;;;;;;;;4997458;28;20218;-71
2023/07/24 15:24:30;;;;;;;1.10;1.10;;;;;;;;;;4998060;28;20218;-75
2023/07/24 15:26:57;;;;;;;1.30;1.30;;;;;;;;;;4997679;28;20209;-75
2023/07/24 15:29:24;;;;;;;1.38;1.38;;;;;;;;;;4997808;28;20206;-73
2023/07/24 15:31:52;;;;;;;2.10;2.00;;;;;;;;;;4997939;28;20198;-71
2023/07/24 15:34:19;;;;;;;2.15;2.05;;;;;;;;;;4997130;28;20613;-71
2023/07/24 15:36:46;;;;;;;2.28;2.17;;;;;;;;;;4996901;28;20225;-70
2023/07/24 15:39:13;;;;;;;1.90;1.90;;;;;;;;;;4997247;28;20217;-71
2023/07/24 15:41:40;;;;;;;1.80;1.75;;;;;;;;;;4997055;28;20214;-71
2023/07/24 15:44:10;;;;;;;1.88;1.88;;;;;;;;;;4997243;28;20222;-71
2023/07/24 15:46:37;;;;;;;1.80;1.80;;;;;;;;;;4996983;28;20202;-72
2023/07/24 15:49:05;;;;;;;2.00;1.90;;;;;;;;;;4997194;28;20205;-72
2023/07/24 15:51:32;;;;;;;1.95;1.90;;;;;;;;;;4996973;28;20285;-72
2023/07/24 15:54:00;;;;;;;2.10;2.10;;;;;;;;;;4997104;28;20241;-72
2023/07/24 15:56:27;;;;;;;1.55;1.55;;;;;;;;;;4996671;28;20206;-72
2023/07/24 15:58:54;;;;;;;1.75;1.60;;;;;;;;;;4996941;28;20202;-72
2023/07/24 16:01:21;;;;;;;2.00;1.90;;;;;;;;;;4996863;28;20313;-72
2023/07/24 16:03:48;;;;;;;1.80;1.80;;;;;;;;;;4996690;28;20226;-73
2023/07/24 16:06:17;;;;;;;1.42;1.42;;;;;;;;;;4997340;28;20210;-72
2023/07/24 16:08:44;;;;;;;1.80;1.70;;;;;;;;;;4997639;28;20202;-73
2023/07/24 16:11:11;;;;;;;1.55;1.55;;;;;;;;;;4996911;28;20206;-73
2023/07/24 16:13:41;;;;;;;1.35;1.35;;;;;;;;;;4996648;28;20248;-72
2023/07/24 16:16:09;;;;;;;1.45;1.45;;;;;;;;;;4997372;28;20191;-72
2023/07/24 16:18:36;;;;;;;1.30;1.30;;;;;;;;;;4996571;28;20245;-72
2023/07/24 16:21:04;;;;;;;1.63;1.63;;;;;;;;;;4996237;28;20198;-72
2023/07/24 16:23:32;;;;;;;1.58;1.58;;;;;;;;;;4996184;28;20230;-72
2023/07/24 16:25:59;;;;;;;1.33;1.33;;;;;;;;;;4996387;28;20208;-72
2023/07/24 16:28:26;;;;;;;1.63;1.58;;;;;;;;;;4996404;28;20213;-71
2023/07/24 16:30:56;;;;;;;1.55;1.55;;;;;;;;;;4995205;28;20213;-71
2023/07/24 16:33:23;;;;;;;1.80;1.70;;;;;;;;;;4996412;28;20218;-72
2023/07/24 16:35:51;;;;;;;1.38;1.38;;;;;;;;;;4996034;28;20222;-72
2023/07/24 16:38:18;;;;;;;1.50;1.50;;;;;;;;;;4996166;28;20206;-72
2023/07/24 16:40:46;;;;;;;1.92;1.92;;;;;;;;;;4996094;28;20206;-71
2023/07/24 16:43:13;;;;;;;1.42;1.42;;;;;;;;;;4995985;28;20226;-71
2023/07/24 16:45:40;;;;;;;1.55;1.48;;;;;;;;;;4995974;28;20217;-70
2023/07/24 16:48:07;;;;;;;2.20;2.10;;;;;;;;;;4996177;28;20206;-72
2023/07/24 16:50:36;;;;;;;1.65;1.65;;;;;;;;;;4995864;28;20210;-72
2023/07/24 16:53:03;;;;;;;1.80;1.80;;;;;;;;;;4996043;28;20328;-72
2023/07/24 16:55:31;;;;;;;1.60;1.60;;;;;;;;;;4995429;28;20554;-72
2023/07/24 16:57:59;;;;;;;1.45;1.45;;;;;;;;;;4995751;28;20209;-73
2023/07/24 17:00:26;;;;;;;1.42;1.42;;;19.90;99.90;;;;;;4995812;28;20201;-72
2023/07/24 17:02:53;;;;;;;1.90;1.80;;;;;;;;;;4995618;28;20649;-72
2023/07/24 17:05:20;;;;;;;2.45;2.35;;;;;;;;;;4995597;28;20217;-73
2023/07/24 17:07:47;;;;;;;2.17;2.15;;;;;;;;;;4995657;28;20213;-71
2023/07/24 17:10:14;;;;;;;2.35;2.25;;;;;;;;;;4995653;28;20206;-72
2023/07/24 17:12:42;;;;;;;2.42;2.33;;;;;;;;;;4997230;28;20218;-72
2023/07/24 17:15:11;;;;;;;2.10;2.00;;;;;;;;;;4996676;28;20253;-72
2023/07/24 17:17:38;;;;;;;1.90;1.90;;;;;;;;;;4996094;28;20203;-72
2023/07/24 17:20:05;;;;;;;2.00;1.90;;;;;;;;;;4995587;28;20206;-72
2023/07/24 17:22:33;;;;;;;1.60;1.60;;;;;;;;;;4995384;28;20222;-72
2023/07/24 17:24:59;;;;;;;1.60;1.60;;;19.20;99.90;;;;;;4995684;28;20209;-73
2023/07/24 17:27:28;;;;;;;1.73;1.73;;;;;;;;;;4995368;28;20202;-73
2023/07/24 17:29:58;;;;;;;1.38;1.38;;;;;;;;;;4995079;28;20202;-73
2023/07/24 17:32:26;;;;;;;1.45;1.45;;;;;;;;;;4995326;28;20286;-73
2023/07/24 17:34:53;;;;;;;1.77;1.67;;;19.40;99.90;;;;;;4995337;28;20213;-73
2023/07/24 17:37:20;;;;;;;1.98;1.90;;;;;;;;;;4995012;28;20566;-72
2023/07/24 17:39:48;;;;;;;1.42;1.42;;;;;;;;;;4995009;28;20199;-69
2023/07/24 17:42:15;;;;;;;1.38;1.38;;;;;;;;;;4994659;28;20305;-71
2023/07/24 17:44:42;;;;;;;1.60;1.60;;;;;;;;;;4994726;28;20670;-70
2023/07/24 17:47:09;;;;;;;1.50;1.50;;;;;;;;;;4995046;28;20211;-71